Terminal Aerodrome Forecast
Issued by NWS

Home | Current Version | Previous Version | Text Only | Print | Product List | Glossary On
Versions: 1 2 3 4 5 6 7 8 9 10 11 12 13 14 15 16 17 18 19 20 21 22 23 24 25 26 27 28 29 30 31
000
FTUS41 KRNK 022113 AAA
TAFBCB
TAF AMD
KBCB 022113Z 0221/0318 30005KT P6SM VCSH SCT050
     FM030100 00000KT P6SM FEW040 BKN080
     FM030600 00000KT 4SM BR SCT050
     FM030900 00000KT 2SM BR BKN010
      TEMPO 0309/0311 1SM BR
     FM031230 29004KT P6SM SCT040=

USA.gov is the U.S. government's official web portal to all federal, state and local government web resources and services.